sensor_id;sensor_type;location;lat;lon;timestamp;pressure;altitude;pressure_sealevel;temperature;humidity
50977;BME280;36992;48.200;12.418;2022-12-29T00:01:23;96651.34;;;6.46;53.50
50977;BME280;36992;48.200;12.418;2022-12-29T00:03:49;96649.47;;;6.46;53.75
50977;BME280;36992;48.200;12.418;2022-12-29T00:06:17;96644.13;;;6.46;53.67
50977;BME280;36992;48.200;12.418;2022-12-29T00:08:44;96641.72;;;6.45;54.04
50977;BME280;36992;48.200;12.418;2022-12-29T00:11:12;96643.31;;;6.46;53.66
50977;BME280;36992;48.200;12.418;2022-12-29T00:13:39;96636.91;;;6.47;53.32
50977;BME280;36992;48.200;12.418;2022-12-29T00:16:25;96651.34;;;6.46;53.33
50977;BME280;36992;48.200;12.418;2022-12-29T00:18:52;96641.72;;;6.45;53.51
50977;BME280;36992;48.200;12.418;2022-12-29T00:21:22;96641.44;;;6.46;53.41
50977;BME280;36992;48.200;12.418;2022-12-29T00:24:10;96637.97;;;6.46;53.68
50977;BME280;36992;48.200;12.418;2022-12-29T00:27:10;96635.56;;;6.44;53.43
50977;BME280;36992;48.200;12.418;2022-12-29T00:29:54;96634.22;;;6.42;53.47
50977;BME280;36992;48.200;12.418;2022-12-29T00:32:38;96625.66;;;6.40;53.57
50977;BME280;36992;48.200;12.418;2022-12-29T00:35:25;96635.03;;;6.42;53.46
50977;BME280;36992;48.200;12.418;2022-12-29T00:37:55;96627.25;;;6.41;53.65
50977;BME280;36992;48.200;12.418;2022-12-29T00:40:40;96627.00;;;6.37;53.52
50977;BME280;36992;48.200;12.418;2022-12-29T00:43:24;96621.91;;;6.36;53.53
50977;BME280;36992;48.200;12.418;2022-12-29T00:46:08;96625.66;;;6.34;53.58
50977;BME280;36992;48.200;12.418;2022-12-29T00:48:35;96619.50;;;6.34;53.49
50977;BME280;36992;48.200;12.418;2022-12-29T00:51:19;96616.81;;;6.34;53.53
50977;BME280;36992;48.200;12.418;2022-12-29T00:53:47;96617.63;;;6.34;53.19
50977;BME280;36992;48.200;12.418;2022-12-29T00:56:14;96613.34;;;6.33;53.44
50977;BME280;36992;48.200;12.418;2022-12-29T00:58:40;96618.69;;;6.33;53.37
50977;BME280;36992;48.200;12.418;2022-12-29T01:01:08;96617.09;;;6.32;53.60
50977;BME280;36992;48.200;12.418;2022-12-29T01:03:36;96615.22;;;6.33;53.74
50977;BME280;36992;48.200;12.418;2022-12-29T01:06:05;96617.09;;;6.32;53.68
50977;BME280;36992;48.200;12.418;2022-12-29T01:08:32;96621.63;;;6.32;53.50
50977;BME280;36992;48.200;12.418;2022-12-29T01:11:02;96624.06;;;6.33;53.78
50977;BME280;36992;48.200;12.418;2022-12-29T01:13:28;96613.88;;;6.30;53.72
50977;BME280;36992;48.200;12.418;2022-12-29T01:15:54;96627.25;;;6.30;53.49
50977;BME280;36992;48.200;12.418;2022-12-29T01:18:22;96619.22;;;6.30;53.49
50977;BME280;36992;48.200;12.418;2022-12-29T01:20:49;96625.66;;;6.29;53.29
50977;BME280;36992;48.200;12.418;2022-12-29T01:23:15;96625.66;;;6.29;53.70
50977;BME280;36992;48.200;12.418;2022-12-29T01:25:42;96626.47;;;6.30;53.21
50977;BME280;36992;48.200;12.418;2022-12-29T01:28:10;96624.56;;;6.30;53.54
50977;BME280;36992;48.200;12.418;2022-12-29T01:30:36;96632.06;;;6.28;53.55
50977;BME280;36992;48.200;12.418;2022-12-29T01:33:03;96629.41;;;6.28;53.64
50977;BME280;36992;48.200;12.418;2022-12-29T01:35:30;96629.41;;;6.28;53.62
50977;BME280;36992;48.200;12.418;2022-12-29T01:37:57;96619.50;;;6.29;53.27
50977;BME280;36992;48.200;12.418;2022-12-29T01:40:24;96633.16;;;6.27;53.54
50977;BME280;36992;48.200;12.418;2022-12-29T01:42:50;96630.47;;;6.27;53.14
50977;BME280;36992;48.200;12.418;2022-12-29T01:45:18;96631.00;;;6.29;53.50
50977;BME280;36992;48.200;12.418;2022-12-29T01:47:48;96624.03;;;6.28;53.35
50977;BME280;36992;48.200;12.418;2022-12-29T01:50:18;96626.72;;;6.28;53.78
50977;BME280;36992;48.200;12.418;2022-12-29T01:52:50;96620.56;;;6.28;53.34
50977;BME280;36992;48.200;12.418;2022-12-29T01:55:17;96609.59;;;6.24;53.48
50977;BME280;36992;48.200;12.418;2022-12-29T01:57:47;96612.81;;;6.26;53.22
50977;BME280;36992;48.200;12.418;2022-12-29T02:00:17;96607.97;;;6.23;53.49
50977;BME280;36992;48.200;12.418;2022-12-29T02:02:46;96612.25;;;6.24;53.21
50977;BME280;36992;48.200;12.418;2022-12-29T02:05:19;96608.50;;;6.25;53.39
50977;BME280;36992;48.200;12.418;2022-12-29T02:07:48;96601.03;;;6.22;53.49
50977;BME280;36992;48.200;12.418;2022-12-29T02:10:17;96605.31;;;6.23;53.42
50977;BME280;36992;48.200;12.418;2022-12-29T02:12:45;96593.25;;;6.20;53.13
50977;BME280;36992;48.200;12.418;2022-12-29T02:15:13;96597.84;;;6.20;53.25
50977;BME280;36992;48.200;12.418;2022-12-29T02:17:57;96596.50;;;6.23;53.36
50977;BME280;36992;48.200;12.418;2022-12-29T02:24:25;96586.59;;;6.23;53.44
50977;BME280;36992;48.200;12.418;2022-12-29T02:27:40;96591.94;;;6.23;53.23
50977;BME280;36992;48.200;12.418;2022-12-29T02:30:34;96583.91;;;6.18;53.33
50977;BME280;36992;48.200;12.418;2022-12-29T02:33:06;96588.97;;;6.14;53.37
50977;BME280;36992;48.200;12.418;2022-12-29T02:35:45;96583.63;;;6.14;53.07
50977;BME280;36992;48.200;12.418;2022-12-29T02:38:20;96580.16;;;6.14;52.96
50977;BME280;36992;48.200;12.418;2022-12-29T02:40:57;96579.63;;;6.12;53.27
50977;BME280;36992;48.200;12.418;2022-12-29T02:43:36;96572.66;;;6.11;53.11
50977;BME280;36992;48.200;12.418;2022-12-29T02:46:10;96580.94;;;6.09;53.52
50977;BME280;36992;48.200;12.418;2022-12-29T02:48:44;96592.97;;;6.06;53.55
50977;BME280;36992;48.200;12.418;2022-12-29T02:51:17;96583.91;;;6.07;53.38
50977;BME280;36992;48.200;12.418;2022-12-29T02:53:45;96588.19;;;6.03;53.52
50977;BME280;36992;48.200;12.418;2022-12-29T02:56:30;96574.25;;;6.01;53.38
50977;BME280;36992;48.200;12.418;2022-12-29T02:58:56;96572.34;;;6.02;53.35
50977;BME280;36992;48.200;12.418;2022-12-29T03:01:39;96576.94;;;6.06;53.46
50977;BME280;36992;48.200;12.418;2022-12-29T03:04:37;96567.31;;;6.05;53.35
50977;BME280;36992;48.200;12.418;2022-12-29T03:07:11;96556.09;;;6.03;53.53
50977;BME280;36992;48.200;12.418;2022-12-29T03:09:46;96561.44;;;6.03;53.52
50977;BME280;36992;48.200;12.418;2022-12-29T03:12:24;96550.72;;;6.03;53.27
50977;BME280;36992;48.200;12.418;2022-12-29T03:15:16;96556.31;;;6.02;53.32
50977;BME280;36992;48.200;12.418;2022-12-29T03:18:06;96558.19;;;6.01;53.43
50977;BME280;36992;48.200;12.418;2022-12-29T03:20:39;96560.31;;;5.99;53.21
50977;BME280;36992;48.200;12.418;2022-12-29T03:23:10;96559.53;;;5.99;53.44
50977;BME280;36992;48.200;12.418;2022-12-29T03:25:40;96553.38;;;5.98;53.29
50977;BME280;36992;48.200;12.418;2022-12-29T03:28:11;96551.50;;;5.99;53.25
50977;BME280;36992;48.200;12.418;2022-12-29T03:30:40;96544.81;;;5.96;53.41
50977;BME280;36992;48.200;12.418;2022-12-29T03:33:12;96543.50;;;5.99;53.37
50977;BME280;36992;48.200;12.418;2022-12-29T03:35:42;96547.25;;;5.98;53.08
50977;BME280;36992;48.200;12.418;2022-12-29T03:38:13;96551.78;;;5.97;53.05
50977;BME280;36992;48.200;12.418;2022-12-29T03:40:43;96556.03;;;5.98;53.39
50977;BME280;36992;48.200;12.418;2022-12-29T03:43:11;96538.41;;;5.97;53.25
50977;BME280;36992;48.200;12.418;2022-12-29T03:45:39;96549.09;;;5.97;53.43
50977;BME280;36992;48.200;12.418;2022-12-29T03:48:05;96550.16;;;5.96;53.37
50977;BME280;36992;48.200;12.418;2022-12-29T03:50:33;96549.63;;;5.99;53.41
50977;BME280;36992;48.200;12.418;2022-12-29T03:53:00;96550.69;;;5.98;53.46
50977;BME280;36992;48.200;12.418;2022-12-29T03:55:26;96550.69;;;5.98;53.24
50977;BME280;36992;48.200;12.418;2022-12-29T03:57:53;96549.63;;;5.99;53.41
50977;BME280;36992;48.200;12.418;2022-12-29T04:00:19;96560.31;;;5.99;53.37
50977;BME280;36992;48.200;12.418;2022-12-29T04:02:46;96560.31;;;5.99;53.23
50977;BME280;36992;48.200;12.418;2022-12-29T04:05:12;96558.72;;;5.98;53.49
50977;BME280;36992;48.200;12.418;2022-12-29T04:07:40;96558.19;;;6.01;53.21
50977;BME280;36992;48.200;12.418;2022-12-29T04:10:08;96564.59;;;6.00;53.42
50977;BME280;36992;48.200;12.418;2022-12-29T04:12:35;96568.09;;;6.01;53.17
50977;BME280;36992;48.200;12.418;2022-12-29T04:15:02;96567.25;;;6.00;53.37
50977;BME280;36992;48.200;12.418;2022-12-29T04:17:28;96563.56;;;6.01;53.06
50977;BME280;36992;48.200;12.418;2022-12-29T04:19:55;96566.22;;;6.01;52.97
50977;BME280;36992;48.200;12.418;2022-12-29T04:22:43;96556.09;;;6.03;52.98
50977;BME280;36992;48.200;12.418;2022-12-29T04:25:09;96554.47;;;6.02;52.96
50977;BME280;36992;48.200;12.418;2022-12-29T04:27:36;96558.19;;;6.01;52.96
50977;BME280;36992;48.200;12.418;2022-12-29T04:30:04;96556.09;;;6.03;53.17
50977;BME280;36992;48.200;12.418;2022-12-29T04:32:31;96567.84;;;6.02;53.08
50977;BME280;36992;48.200;12.418;2022-12-29T04:34:57;96565.97;;;6.03;52.79
50977;BME280;36992;48.200;12.418;2022-12-29T04:37:24;96570.53;;;6.02;53.14
50977;BME280;36992;48.200;12.418;2022-12-29T04:39:52;96563.03;;;6.04;52.86
50977;BME280;36992;48.200;12.418;2022-12-29T04:42:18;96556.09;;;6.03;53.07
50977;BME280;36992;48.200;12.418;2022-12-29T04:44:45;96572.13;;;6.03;52.76
50977;BME280;36992;48.200;12.418;2022-12-29T04:47:11;96551.25;;;6.05;52.96
50977;BME280;36992;48.200;12.418;2022-12-29T04:49:38;96560.09;;;6.06;53.13
50977;BME280;36992;48.200;12.418;2022-12-29T04:52:04;96553.94;;;6.05;52.74
50977;BME280;36992;48.200;12.418;2022-12-29T04:54:33;96547.50;;;6.06;52.79
50977;BME280;36992;48.200;12.418;2022-12-29T04:57:01;96556.09;;;6.09;52.49
50977;BME280;36992;48.200;12.418;2022-12-29T04:59:28;96550.75;;;6.09;52.55
50977;BME280;36992;48.200;12.418;2022-12-29T05:01:54;96556.09;;;6.09;52.26
50977;BME280;36992;48.200;12.418;2022-12-29T05:04:21;96559.56;;;6.09;51.80
50977;BME280;36992;48.200;12.418;2022-12-29T05:06:47;96549.66;;;6.10;51.61
50977;BME280;36992;48.200;12.418;2022-12-29T05:09:14;96547.25;;;6.08;51.38
50977;BME280;36992;48.200;12.418;2022-12-29T05:11:41;96549.94;;;6.08;51.77
50977;BME280;36992;48.200;12.418;2022-12-29T05:14:09;96566.53;;;6.10;52.02
50977;BME280;36992;48.200;12.418;2022-12-29T05:16:35;96551.81;;;6.07;52.37
50977;BME280;36992;48.200;12.418;2022-12-29T05:19:02;96559.28;;;6.05;51.35
50977;BME280;36992;48.200;12.418;2022-12-29T05:21:28;96549.16;;;6.07;52.18
50977;BME280;36992;48.200;12.418;2022-12-29T05:23:55;96564.13;;;6.09;51.92
50977;BME280;36992;48.200;12.418;2022-12-29T05:26:22;96549.66;;;6.10;52.46
50977;BME280;36992;48.200;12.418;2022-12-29T05:28:49;96548.59;;;6.11;52.74
50977;BME280;36992;48.200;12.418;2022-12-29T05:31:17;96556.09;;;6.14;51.74
50977;BME280;36992;48.200;12.418;2022-12-29T05:33:44;96543.78;;;6.13;52.51
50977;BME280;36992;48.200;12.418;2022-12-29T05:36:11;96541.66;;;6.15;52.63
50977;BME280;36992;48.200;12.418;2022-12-29T05:38:38;96541.66;;;6.15;52.51
50977;BME280;36992;48.200;12.418;2022-12-29T05:41:04;96548.59;;;6.16;52.44
50977;BME280;36992;48.200;12.418;2022-12-29T05:43:31;96536.81;;;6.17;52.08
50977;BME280;36992;48.200;12.418;2022-12-29T05:45:58;96534.97;;;6.17;51.64
50977;BME280;36992;48.200;12.418;2022-12-29T05:48:26;96544.84;;;6.17;51.34
50977;BME280;36992;48.200;12.418;2022-12-29T05:50:53;96541.38;;;6.16;52.17
50977;BME280;36992;48.200;12.418;2022-12-29T05:53:20;96537.91;;;6.16;51.76
50977;BME280;36992;48.200;12.418;2022-12-29T05:55:47;96532.56;;;6.16;51.81
50977;BME280;36992;48.200;12.418;2022-12-29T05:58:15;96529.88;;;6.16;52.06
50977;BME280;36992;48.200;12.418;2022-12-29T06:00:42;96528.03;;;6.16;52.17
50977;BME280;36992;48.200;12.418;2022-12-29T06:03:09;96541.38;;;6.16;52.04
50977;BME280;36992;48.200;12.418;2022-12-29T06:05:37;96533.91;;;6.18;52.23
50977;BME280;36992;48.200;12.418;2022-12-29T06:08:04;96535.75;;;6.18;52.05
50977;BME280;36992;48.200;12.418;2022-12-29T06:10:30;96530.41;;;6.18;52.10
50977;BME280;36992;48.200;12.418;2022-12-29T06:12:57;96534.97;;;6.17;52.23
50977;BME280;36992;48.200;12.418;2022-12-29T06:15:24;96532.00;;;6.19;52.34
50977;BME280;36992;48.200;12.418;2022-12-29T06:17:50;96540.84;;;6.19;51.34
50977;BME280;36992;48.200;12.418;2022-12-29T06:20:17;96527.47;;;6.19;51.79
50977;BME280;36992;48.200;12.418;2022-12-29T06:22:45;96532.28;;;6.23;51.91
50977;BME280;36992;48.200;12.418;2022-12-29T06:25:11;96523.44;;;6.22;51.49
50977;BME280;36992;48.200;12.418;2022-12-29T06:27:38;96524.53;;;6.21;51.99
50977;BME280;36992;48.200;12.418;2022-12-29T06:30:05;96523.97;;;6.24;52.18
50977;BME280;36992;48.200;12.418;2022-12-29T06:32:32;96523.97;;;6.24;51.92
50977;BME280;36992;48.200;12.418;2022-12-29T06:34:58;96514.88;;;6.25;51.88
50977;BME280;36992;48.200;12.418;2022-12-29T06:37:25;96519.19;;;6.26;51.79
50977;BME280;36992;48.200;12.418;2022-12-29T06:39:53;96522.91;;;6.30;51.71
50977;BME280;36992;48.200;12.418;2022-12-29T06:42:19;96526.66;;;6.29;51.94
50977;BME280;36992;48.200;12.418;2022-12-29T06:44:46;96523.72;;;6.31;51.88
50977;BME280;36992;48.200;12.418;2022-12-29T06:47:12;96525.31;;;6.32;51.84
50977;BME280;36992;48.200;12.418;2022-12-29T06:49:39;96534.16;;;6.32;50.75
50977;BME280;36992;48.200;12.418;2022-12-29T06:52:05;96518.09;;;6.32;51.90
50977;BME280;36992;48.200;12.418;2022-12-29T06:54:32;96525.84;;;6.34;51.13
50977;BME280;36992;48.200;12.418;2022-12-29T06:57:01;96538.97;;;6.36;51.43
50977;BME280;36992;48.200;12.418;2022-12-29T06:59:27;96529.34;;;6.34;51.78
50977;BME280;36992;48.200;12.418;2022-12-29T07:01:54;96526.66;;;6.34;52.04
50977;BME280;36992;48.200;12.418;2022-12-29T07:04:20;96537.09;;;6.36;51.85
50977;BME280;36992;48.200;12.418;2022-12-29T07:06:47;96532.53;;;6.37;51.81
50977;BME280;36992;48.200;12.418;2022-12-29T07:09:13;96538.44;;;6.39;51.69
50977;BME280;36992;48.200;12.418;2022-12-29T07:11:40;96534.69;;;6.40;51.74
50977;BME280;36992;48.200;12.418;2022-12-29T07:14:09;96539.47;;;6.43;51.70
50977;BME280;36992;48.200;12.418;2022-12-29T07:16:36;96548.59;;;6.42;51.33
50977;BME280;36992;48.200;12.418;2022-12-29T07:19:03;96545.66;;;6.43;51.29
50977;BME280;36992;48.200;12.418;2022-12-29T07:21:30;96545.38;;;6.45;51.56
50977;BME280;36992;48.200;12.418;2022-12-29T07:23:57;96540.81;;;6.45;51.18
50977;BME280;36992;48.200;12.418;2022-12-29T07:26:23;96542.16;;;6.48;51.13
50977;BME280;36992;48.200;12.418;2022-12-29T07:28:50;96545.66;;;6.48;50.91
50977;BME280;36992;48.200;12.418;2022-12-29T07:31:19;96547.78;;;6.52;51.60
50977;BME280;36992;48.200;12.418;2022-12-29T07:33:47;96556.88;;;6.51;51.05
50977;BME280;36992;48.200;12.418;2022-12-29T07:36:15;96556.63;;;6.52;50.95
50977;BME280;36992;48.200;12.418;2022-12-29T07:38:42;96556.63;;;6.52;50.82
50977;BME280;36992;48.200;12.418;2022-12-29T07:41:09;96561.72;;;6.54;50.70
50977;BME280;36992;48.200;12.418;2022-12-29T07:43:36;96559.81;;;6.54;50.75
50977;BME280;36992;48.200;12.418;2022-12-29T07:46:02;96556.06;;;6.55;51.47
50977;BME280;36992;48.200;12.418;2022-12-29T07:48:30;96561.69;;;6.59;50.85
50977;BME280;36992;48.200;12.418;2022-12-29T07:50:58;96556.63;;;6.57;51.32
50977;BME280;36992;48.200;12.418;2022-12-29T07:53:25;96566.75;;;6.60;51.36
50977;BME280;36992;48.200;12.418;2022-12-29T07:55:51;96574.78;;;6.60;51.27
50977;BME280;36992;48.200;12.418;2022-12-29T07:58:18;96576.41;;;6.61;51.23
50977;BME280;36992;48.200;12.418;2022-12-29T08:00:45;96582.31;;;6.64;51.22
50977;BME280;36992;48.200;12.418;2022-12-29T08:03:11;96582.81;;;6.66;51.37
50977;BME280;36992;48.200;12.418;2022-12-29T08:05:39;96592.97;;;6.69;51.30
50977;BME280;36992;48.200;12.418;2022-12-29T08:08:06;96578.53;;;6.70;51.13
50977;BME280;36992;48.200;12.418;2022-12-29T08:10:32;96587.09;;;6.72;51.23
50977;BME280;36992;48.200;12.418;2022-12-29T08:12:59;96578.00;;;6.73;51.37
50977;BME280;36992;48.200;12.418;2022-12-29T08:15:25;96591.91;;;6.75;50.87
50977;BME280;36992;48.200;12.418;2022-12-29T08:17:52;96585.22;;;6.78;51.27
50977;BME280;36992;48.200;12.418;2022-12-29T08:20:18;96592.97;;;6.79;51.07
50977;BME280;36992;48.200;12.418;2022-12-29T08:22:46;96587.88;;;6.83;51.44
50977;BME280;36992;48.200;12.418;2022-12-29T08:25:13;96600.19;;;6.84;51.16
50977;BME280;36992;48.200;12.418;2022-12-29T08:27:40;96601.78;;;6.85;51.05
50977;BME280;36992;48.200;12.418;2022-12-29T08:30:08;96602.09;;;6.88;51.17
50977;BME280;36992;48.200;12.418;2022-12-29T08:32:35;96599.91;;;6.91;51.07
50977;BME280;36992;48.200;12.418;2022-12-29T08:35:01;96612.22;;;6.92;50.51
50977;BME280;36992;48.200;12.418;2022-12-29T08:37:28;96605.53;;;6.94;51.09
50977;BME280;36992;48.200;12.418;2022-12-29T08:39:55;96616.50;;;6.98;51.00
50977;BME280;36992;48.200;12.418;2022-12-29T08:42:22;96610.06;;;6.99;51.05
50977;BME280;36992;48.200;12.418;2022-12-29T08:44:50;96605.28;;;7.01;51.00
50977;BME280;36992;48.200;12.418;2022-12-29T08:47:16;96610.06;;;7.04;50.46
50977;BME280;36992;48.200;12.418;2022-12-29T08:49:43;96597.19;;;7.06;50.40
50977;BME280;36992;48.200;12.418;2022-12-29T08:52:09;96598.53;;;7.09;50.52
50977;BME280;36992;48.200;12.418;2022-12-29T08:54:36;96593.72;;;7.11;50.42
50977;BME280;36992;48.200;12.418;2022-12-29T08:57:04;96589.41;;;7.15;50.32
50977;BME280;36992;48.200;12.418;2022-12-29T08:59:30;96574.16;;;7.15;49.89
50977;BME280;36992;48.200;12.418;2022-12-29T09:01:57;96578.16;;;7.18;49.93
50977;BME280;36992;48.200;12.418;2022-12-29T09:04:24;96585.63;;;7.21;49.86
50977;BME280;36992;48.200;12.418;2022-12-29T09:06:50;96567.13;;;7.25;49.71
50977;BME280;36992;48.200;12.418;2022-12-29T09:09:17;96573.56;;;7.29;49.40
50977;BME280;36992;48.200;12.418;2022-12-29T09:11:44;96578.38;;;7.32;48.96
50977;BME280;36992;48.200;12.418;2022-12-29T09:14:12;96577.81;;;7.35;48.16
50977;BME280;36992;48.200;12.418;2022-12-29T09:16:39;96572.72;;;7.39;48.29
50977;BME280;36992;48.200;12.418;2022-12-29T09:19:23;96566.25;;;7.45;48.51
50977;BME280;36992;48.200;12.418;2022-12-29T09:21:50;96564.63;;;7.49;48.69
50977;BME280;36992;48.200;12.418;2022-12-29T09:24:16;96560.03;;;7.55;48.54
50977;BME280;36992;48.200;12.418;2022-12-29T09:26:43;96551.97;;;7.60;48.93
50977;BME280;36992;48.200;12.418;2022-12-29T09:29:09;96556.50;;;7.65;48.09
50977;BME280;36992;48.200;12.418;2022-12-29T09:31:37;96559.16;;;7.70;48.53
50977;BME280;36992;48.200;12.418;2022-12-29T09:34:04;96557.81;;;7.73;48.33
50977;BME280;36992;48.200;12.418;2022-12-29T09:36:30;96557.78;;;7.78;48.17
50977;BME280;36992;48.200;12.418;2022-12-29T09:38:57;96564.19;;;7.82;47.96
50977;BME280;36992;48.200;12.418;2022-12-29T09:41:26;96563.09;;;7.88;48.08
50977;BME280;36992;48.200;12.418;2022-12-29T09:44:13;96560.09;;;7.95;48.56
50977;BME280;36992;48.200;12.418;2022-12-29T09:46:46;96571.06;;;7.99;47.92
50977;BME280;36992;48.200;12.418;2022-12-29T09:49:24;96570.50;;;8.02;48.38
50977;BME280;36992;48.200;12.418;2022-12-29T09:51:56;96569.44;;;8.03;47.87
50977;BME280;36992;48.200;12.418;2022-12-29T09:54:38;96577.44;;;8.08;48.70
50977;BME280;36992;48.200;12.418;2022-12-29T09:57:15;96570.41;;;8.12;47.93
50977;BME280;36992;48.200;12.418;2022-12-29T09:59:44;96575.00;;;8.12;47.43
50977;BME280;36992;48.200;12.418;2022-12-29T10:02:21;96567.19;;;8.15;48.15
50977;BME280;36992;48.200;12.418;2022-12-29T10:04:50;96564.78;;;8.14;47.34
50977;BME280;36992;48.200;12.418;2022-12-29T10:07:26;96559.66;;;8.17;48.09
50977;BME280;36992;48.200;12.418;2022-12-29T10:10:03;96580.84;;;8.19;47.38
50977;BME280;36992;48.200;12.418;2022-12-29T10:12:44;96567.66;;;8.22;47.96
50977;BME280;36992;48.200;12.418;2022-12-29T10:15:29;96568.75;;;8.21;47.40
50977;BME280;36992;48.200;12.418;2022-12-29T10:18:05;96565.50;;;8.24;47.62
50977;BME280;36992;48.200;12.418;2022-12-29T10:20:48;96571.41;;;8.27;47.75
50977;BME280;36992;48.200;12.418;2022-12-29T10:23:25;96572.19;;;8.27;47.67
50977;BME280;36992;48.200;12.418;2022-12-29T10:25:54;96566.03;;;8.27;46.35
50977;BME280;36992;48.200;12.418;2022-12-29T10:28:24;96560.38;;;8.28;47.08
50977;BME280;36992;48.200;12.418;2022-12-29T10:30:53;96560.59;;;8.32;47.59
50977;BME280;36992;48.200;12.418;2022-12-29T10:33:31;96541.53;;;8.33;47.96
50977;BME280;36992;48.200;12.418;2022-12-29T10:36:02;96543.13;;;8.34;47.64
50977;BME280;36992;48.200;12.418;2022-12-29T10:38:38;96537.50;;;8.36;47.52
50977;BME280;36992;48.200;12.418;2022-12-29T10:41:13;96532.63;;;8.38;47.78
50977;BME280;36992;48.200;12.418;2022-12-29T10:43:46;96529.69;;;8.40;47.84
50977;BME280;36992;48.200;12.418;2022-12-29T10:46:17;96528.59;;;8.41;48.04
50977;BME280;36992;48.200;12.418;2022-12-29T10:48:46;96529.13;;;8.43;47.60
50977;BME280;36992;48.200;12.418;2022-12-29T10:51:20;96530.97;;;8.47;48.40
50977;BME280;36992;48.200;12.418;2022-12-29T10:53:49;96522.63;;;8.49;47.35
50977;BME280;36992;48.200;12.418;2022-12-29T10:56:29;96522.31;;;8.56;48.15
50977;BME280;36992;48.200;12.418;2022-12-29T10:59:01;96525.53;;;8.58;48.19
50977;BME280;36992;48.200;12.418;2022-12-29T11:01:34;96527.38;;;8.62;48.00
50977;BME280;36992;48.200;12.418;2022-12-29T11:04:12;96532.97;;;8.66;48.06
50977;BME280;36992;48.200;12.418;2022-12-29T11:06:43;96513.88;;;8.68;47.94
50977;BME280;36992;48.200;12.418;2022-12-29T11:09:12;96522.69;;;8.73;48.04
50977;BME280;36992;48.200;12.418;2022-12-29T11:11:41;96524.28;;;8.74;47.29
50977;BME280;36992;48.200;12.418;2022-12-29T11:14:12;96522.03;;;8.82;47.86
50977;BME280;36992;48.200;12.418;2022-12-29T11:16:40;96530.09;;;8.82;47.44
50977;BME280;36992;48.200;12.418;2022-12-29T11:19:21;96527.59;;;8.90;48.03
50977;BME280;36992;48.200;12.418;2022-12-29T11:21:49;96528.47;;;8.86;46.44
50977;BME280;36992;48.200;12.418;2022-12-29T11:24:21;96524.63;;;8.92;46.48
50977;BME280;36992;48.200;12.418;2022-12-29T11:26:49;96524.34;;;8.94;46.31
50977;BME280;36992;48.200;12.418;2022-12-29T11:29:22;96518.94;;;8.99;46.94
50977;BME280;36992;48.200;12.418;2022-12-29T11:31:51;96519.72;;;8.99;46.77
50977;BME280;36992;48.200;12.418;2022-12-29T11:34:22;96510.00;;;9.03;46.84
50977;BME280;36992;48.200;12.418;2022-12-29T11:36:52;96508.91;;;9.04;46.46
50977;BME280;36992;48.200;12.418;2022-12-29T11:39:29;96494.31;;;9.11;47.52
50977;BME280;36992;48.200;12.418;2022-12-29T11:41:57;96508.03;;;9.09;46.28
50977;BME280;36992;48.200;12.418;2022-12-29T11:44:24;96500.50;;;9.11;46.32
50977;BME280;36992;48.200;12.418;2022-12-29T11:46:53;96497.50;;;9.13;46.73
50977;BME280;36992;48.200;12.418;2022-12-29T11:49:23;96499.38;;;9.17;46.57
50977;BME280;36992;48.200;12.418;2022-12-29T11:51:51;96503.66;;;9.18;46.58
50977;BME280;36992;48.200;12.418;2022-12-29T11:54:23;96485.88;;;9.23;46.41
50977;BME280;36992;48.200;12.418;2022-12-29T11:56:51;96488.25;;;9.24;46.64
50977;BME280;36992;48.200;12.418;2022-12-29T11:59:37;96483.31;;;9.31;46.98
50977;BME280;36992;48.200;12.418;2022-12-29T12:05:08;96488.91;;;9.35;46.27
50977;BME280;36992;48.200;12.418;2022-12-29T12:07:41;96471.13;;;9.39;47.10
50977;BME280;36992;48.200;12.418;2022-12-29T12:10:17;96479.41;;;9.43;46.82
50977;BME280;36992;48.200;12.418;2022-12-29T12:12:51;96477.22;;;9.45;46.51
50977;BME280;36992;48.200;12.418;2022-12-29T12:15:20;96468.06;;;9.46;46.26
50977;BME280;36992;48.200;12.418;2022-12-29T12:17:51;96474.44;;;9.50;46.01
50977;BME280;36992;48.200;12.418;2022-12-29T12:20:22;96468.50;;;9.53;46.38
50977;BME280;36992;48.200;12.418;2022-12-29T12:23:00;96462.53;;;9.56;46.58
50977;BME280;36992;48.200;12.418;2022-12-29T12:25:31;96462.25;;;9.58;46.29
50977;BME280;36992;48.200;12.418;2022-12-29T12:28:03;96447.41;;;9.61;46.02
50977;BME280;36992;48.200;12.418;2022-12-29T12:30:36;96449.22;;;9.65;46.44
50977;BME280;36992;48.200;12.418;2022-12-29T12:33:13;96446.25;;;9.67;46.07
50977;BME280;36992;48.200;12.418;2022-12-29T12:35:46;96440.31;;;9.70;45.78
50977;BME280;36992;48.200;12.418;2022-12-29T12:38:25;96438.31;;;9.76;46.52
50977;BME280;36992;48.200;12.418;2022-12-29T12:40:59;96439.34;;;9.80;46.24
50977;BME280;36992;48.200;12.418;2022-12-29T12:43:42;96440.31;;;9.84;46.53
50977;BME280;36992;48.200;12.418;2022-12-29T12:46:28;96434.38;;;9.87;46.36
50977;BME280;36992;48.200;12.418;2022-12-29T12:49:30;96445.34;;;9.91;46.42
50977;BME280;36992;48.200;12.418;2022-12-29T12:52:08;96433.97;;;9.94;46.01
50977;BME280;36992;48.200;12.418;2022-12-29T12:54:55;96436.59;;;9.99;45.97
50977;BME280;36992;48.200;12.418;2022-12-29T12:57:39;96435.22;;;10.02;45.70
50977;BME280;36992;48.200;12.418;2022-12-29T13:00:10;96432.44;;;10.07;45.10
50977;BME280;36992;48.200;12.418;2022-12-29T13:02:46;96426.69;;;10.14;45.88
50977;BME280;36992;48.200;12.418;2022-12-29T13:05:38;96429.47;;;10.22;46.42
50977;BME280;36992;48.200;12.418;2022-12-29T13:08:33;96429.69;;;10.26;45.95
50977;BME280;36992;48.200;12.418;2022-12-29T13:11:15;96419.91;;;10.30;45.57
50977;BME280;36992;48.200;12.418;2022-12-29T13:14:03;96426.31;;;10.34;45.69
50977;BME280;36992;48.200;12.418;2022-12-29T13:16:39;96432.69;;;10.38;45.63
50977;BME280;36992;48.200;12.418;2022-12-29T13:19:10;96431.03;;;10.43;45.37
50977;BME280;36992;48.200;12.418;2022-12-29T13:21:51;96427.75;;;10.46;45.35
50977;BME280;36992;48.200;12.418;2022-12-29T13:24:28;96434.13;;;10.50;45.48
50977;BME280;36992;48.200;12.418;2022-12-29T13:27:02;96437.31;;;10.52;44.61